Date,TemperatureHighF,TemperatureAvgF,TemperatureLowF,DewpointHighF,DewpointAvgF,DewpointLowF,HumidityHigh,HumidityAvg,HumidityLow,PressureMaxIn,PressureMinIn,WindSpeedMaxMPH,WindSpeedAvgMPH,GustSpeedMaxMPH,PrecipitationSumIn
2013-1-27,28,26,24,19,17,16,70,68,65,30.40,30.35,0,0,0,0.00
2013-1-28,39,33,29,38,30,18,95,88,64,30.34,29.93,0,0,0,0.20
2013-1-29,63,52,40,53,47,38,95,85,69,30.00,29.80,2,0,5,0.01
2013-1-30,66,56,52,58,53,47,96,88,76,29.79,29.12,7,1,17,1.05
2013-1-31,54,36,25,52,23,8,95,62,43,29.76,29.04,16,5,22,0.43
2013-2-1,25,20,15,21,8,2,89,59,46,30.25,29.72,19,4,24,0.00
2013-2-2,24,18,11,20,9,2,86,67,46,30.26,29.90,3,0,8,0.00
2013-2-3,30,25,20,25,21,13,89,82,62,29.90,29.70,12,2,20,0.00
2013-2-4,33,25,19,25,14,8,90,63,45,29.96,29.77,8,3,17,0.00
2013-2-5,36,32,28,30,28,25,93,86,75,29.82,29.73,2,0,4,0.03
2013-2-6,36,31,25,28,23,17,93,74,56,30.24,29.82,6,2,12,0.00
2013-2-7,34,30,24,25,19,17,77,64,53,30.32,30.10,6,1,10,0.00
2013-2-8,36,32,28,34,27,18,93,82,67,30.06,29.67,13,2,20,0.01
2013-2-9,34,27,23,17,14,12,69,59,43,30.29,29.84,17,4,22,0.00
2013-2-10,41,31,20,19,15,12,74,52,31,30.35,30.09,3,1,10,0.01
2013-2-11,54,43,34,46,36,18,94,77,32,30.08,29.56,6,1,14,0.21
2013-2-12,46,41,34,29,26,24,68,55,46,29.88,29.70,9,3,19,0.00
2013-2-13,38,34,31,30,26,23,92,72,57,29.83,29.56,3,1,32,0.00
2013-2-14,43,35,26,30,28,24,94,77,55,29.89,29.62,6,1,8,0.13
2013-2-15,48,38,32,34,30,25,93,73,51,29.91,29.81,7,2,12,0.13
2013-2-16,33,31,26,31,23,13,94,73,51,29.87,29.75,7,2,10,0.00
2013-2-17,26,22,19,17,11,4,82,62,46,30.08,29.74,12,5,18,0.00
2013-2-18,35,26,16,17,8,4,61,48,34,30.26,30.00,7,2,13,0.00
2013-2-19,46,37,31,38,26,17,88,65,47,30.00,29.53,8,2,14,0.07
2013-2-20,31,25,22,20,11,6,68,55,47,30.04,29.72,12,5,19,0.00
2013-2-21,31,25,21,15,12,9,72,58,47,30.23,30.00,10,3,16,0.00
2013-2-22,29,27,22,25,20,15,86,74,63,30.27,30.08,3,1,10,0.00
2013-2-23,43,34,29,38,32,25,93,87,78,30.08,29.71,3,0,6,0.00
2013-2-24,41,35,30,35,27,18,96,73,51,30.00,29.67,14,3,21,0.00
2013-2-25,43,32,24,23,20,17,76,62,44,30.10,29.99,3,1,8,0.00
2013-2-26,37,34,29,35,28,22,93,80,64,30.09,29.54,10,2,21,0.68
2013-2-27,47,40,34,39,34,31,95,80,57,29.57,29.43,6,2,18,0.08
2013-2-28,40,36,31,33,29,25,90,74,56,29.60,29.50,7,2,12,0.00
2013-3-1,38,35,32,30,26,21,82,69,57,29.78,29.60,6,2,11,0.00
2013-3-2,32,29,27,22,19,17,72,66,55,29.78,29.71,7,3,11,0.00
2013-3-3,32,29,26,21,18,16,81,63,54,29.80,29.70,10,4,20,0.00
2013-3-4,35,28,24,18,15,12,66,57,46,29.93,29.80,12,4,19,0.00
2013-3-5,44,34,23,26,18,10,72,54,27,29.96,29.69,3,1,11,0.00
2013-3-6,39,35,31,33,30,26,96,83,66,29.91,29.58,14,5,24,0.35
2013-3-7,42,37,32,28,26,22,77,62,49,30.05,29.91,12,3,13,0.00
2013-3-8,44,37,31,27,25,21,82,62,50,30.19,30.03,10,4,18,0.00
2013-3-9,54,39,27,28,24,21,77,56,31,30.25,30.15,5,1,8,0.00
2013-3-10,61,49,37,30,22,18,56,37,20,30.18,30.06,5,1,13,0.00
2013-3-11,58,49,40,47,36,18,83,63,30,30.06,29.75,6,2,14,0.00
2013-3-12,56,48,38,51,41,27,94,76,62,29.83,29.62,10,3,16,0.46
2013-3-13,43,36,30,28,23,17,78,60,37,29.92,29.77,8,3,18,0.00
2013-3-14,37,32,27,21,15,12,75,51,35,30.00,29.91,14,6,21,0.00
2013-3-15,51,39,25,32,23,15,75,54,38,29.97,29.66,9,2,14,0.00
2013-3-16,42,37,33,34,32,30,92,81,63,29.82,29.57,6,1,12,0.06
2013-3-17,37,34,32,31,24,20,92,68,50,30.15,29.82,7,2,12,0.01
2013-3-18,33,31,28,30,24,18,93,75,57,30.19,29.78,6,1,16,0.00
2013-3-19,52,38,32,36,26,11,95,67,23,29.79,29.59,20,3,20,0.21
2013-3-20,45,37,29,24,15,11,65,43,24,29.84,29.65,11,4,17,0.00
2013-3-21,33,28,23,22,12,6,77,52,36,29.77,29.65,12,4,17,0.00
2013-3-22,36,30,21,18,16,10,72,57,45,29.89,29.73,10,3,20,0.00
2013-3-23,45,34,24,22,20,17,76,56,34,29.91,29.81,11,2,17,0.00
2013-3-24,40,34,26,28,20,18,75,58,45,29.90,29.53,6,1,11,0.00
2013-3-25,35,32,30,32,30,25,94,89,67,29.58,29.41,5,0,8,0.29
2013-3-26,46,37,28,34,28,24,96,75,42,29.88,29.58,8,2,18,0.25
2013-3-27,43,38,34,32,27,23,78,66,47,30.00,29.87,12,3,19,0.00
2013-3-28,44,39,33,32,27,23,80,64,46,30.11,29.95,12,3,17,0.00
2013-3-29,51,42,34,30,27,23,76,56,36,30.13,30.02,6,2,14,0.00
2013-3-30,54,43,33,29,24,17,77,51,24,30.11,29.98,7,2,11,0.00
2013-3-31,48,44,42,43,35,21,96,73,42,29.97,29.62,3,1,7,0.18
2013-4-1,54,42,32,44,32,14,96,70,35,29.85,29.61,17,3,19,0.01
2013-4-2,40,33,28,19,14,10,64,47,28,30.06,29.86,11,3,19,0.00
2013-4-3,43,33,24,21,14,6,67,49,23,30.26,30.05,10,3,22,0.00
2013-4-4,47,35,22,17,13,9,66,43,24,30.30,29.94,3,1,7,0.00
2013-4-5,60,46,33,30,23,15,73,44,25,29.94,29.70,12,3,20,0.00
2013-4-6,53,41,29,22,19,13,68,43,21,30.19,29.94,6,1,13,0.00
2013-4-7,67,54,38,45,32,17,64,43,33,30.09,29.82,6,1,13,0.00
2013-4-8,78,66,53,46,43,38,67,46,24,29.92,29.79,7,1,11,0.00
2013-4-9,81,68,55,53,49,45,70,51,34,29.92,29.76,5,1,13,0.00
2013-4-10,87,73,60,55,52,48,67,49,28,29.81,29.63,10,2,13,0.00
2013-4-11,80,68,55,60,54,51,84,62,39,29.76,29.60,11,2,18,0.00
2013-4-12,58,52,48,53,49,46,95,91,83,29.68,29.48,13,2,20,0.45
2013-4-13,63,51,42,45,33,28,92,53,27,29.84,29.68,12,2,14,0.00
2013-4-14,62,50,39,35,32,28,77,52,29,30.03,29.85,6,2,15,0.00
2013-4-19,60,52,50,57,44,40,92,74,67,29.65,29.52,3,2,21,0.00
2013-4-20,52,46,38,40,28,22,69,50,33,30.24,29.64,12,5,20,0.00
2013-4-21,51,41,31,27,22,17,66,47,29,30.48,30.25,8,2,12,0.00
2013-4-22,55,45,36,32,29,27,79,56,39,30.45,30.27,5,1,16,0.00
2013-4-23,57,46,37,39,36,30,80,68,48,30.31,30.00,8,2,10,0.00
2013-4-24,74,57,44,58,47,37,91,71,43,29.99,29.62,11,2,20,0.11
2013-4-25,58,48,40,39,31,25,69,53,28,30.19,29.91,12,3,17,0.01
2013-4-26,60,50,40,34,29,23,74,47,27,30.35,30.19,10,1,11,0.00
2013-4-27,68,56,44,37,32,28,62,43,24,30.29,30.13,6,1,12,0.00
2013-4-28,63,55,49,49,40,34,86,58,38,30.13,29.99,6,1,10,0.01
2013-4-29,58,53,50,55,50,42,94,89,66,30.00,29.92,2,0,11,0.30
2013-4-30,59,55,52,54,52,51,94,91,82,30.18,29.98,6,1,10,0.05
2013-5-1,68,57,46,51,37,26,92,52,22,30.29,30.17,7,1,10,0.01
2013-5-2,68,56,42,44,42,39,91,64,36,30.31,30.19,5,1,12,0.00
2013-5-3,67,56,47,44,41,39,77,60,37,30.27,30.15,7,2,12,0.01
2013-5-4,67,54,42,43,40,38,90,64,37,30.22,30.06,7,1,13,0.00
2013-5-5,63,51,41,41,39,35,88,65,36,30.12,30.01,7,1,16,0.00
2013-5-6,60,53,43,54,47,39,88,81,75,30.07,29.96,8,2,14,0.00
2013-5-7,60,58,54,58,55,52,95,92,85,29.96,29.84,11,2,14,1.29
2013-5-8,66,60,54,57,54,50,94,82,60,29.87,29.79,3,0,13,0.04
2013-5-9,69,58,50,60,54,48,94,85,62,29.89,29.78,3,1,7,0.06
2013-5-10,80,64,54,61,56,51,95,77,40,29.89,29.73,11,1,11,0.67
2013-5-11,68,62,57,63,59,54,97,90,69,29.73,29.60,5,0,7,0.23
2013-5-12,58,53,43,53,34,24,84,52,31,29.90,29.63,11,3,19,0.00
2013-5-13,52,45,38,32,27,21,74,52,30,30.05,29.89,13,2,16,0.00
2013-5-14,58,46,33,42,31,26,77,58,32,30.10,29.93,6,1,11,0.00
2013-5-15,79,62,50,66,49,36,82,64,47,29.92,29.56,4,1,8,0.01
2013-5-16,77,68,62,63,58,50,92,72,38,29.82,29.61,6,1,8,0.13
2013-5-17,78,66,55,56,50,43,91,60,38,30.00,29.82,2,1,10,0.00
2013-5-18,67,61,57,56,52,44,92,73,44,30.09,29.98,2,1,9,0.00
2013-5-19,68,61,57,62,59,54,95,91,81,30.09,29.96,2,0,7,0.00
2013-5-20,79,70,63,67,64,61,94,82,66,29.99,29.84,5,0,7,0.00
2013-5-21,85,73,64,68,65,62,94,77,50,29.85,29.72,3,1,6,0.00
2013-5-22,87,74,65,68,64,58,94,74,45,29.80,29.66,2,0,9,0.30
2013-5-23,75,66,61,67,63,59,96,89,70,29.75,29.59,1,0,6,0.08
2013-5-24,62,52,44,61,43,30,95,74,54,30.06,29.61,10,3,17,0.02
2013-5-25,61,51,40,36,33,28,78,53,31,30.07,29.97,11,3,18,0.00
2013-5-26,67,55,42,39,34,30,76,49,27,30.11,30.01,7,2,14,0.00
2013-5-27,65,57,47,48,41,35,74,57,39,30.17,30.07,5,1,7,0.00
2013-5-28,74,63,56,64,56,45,92,77,62,30.08,29.93,3,0,6,0.06
2013-5-29,85,73,62,64,62,60,94,71,44,29.97,29.92,5,1,8,0.00
2013-5-30,86,76,65,66,64,61,87,68,44,30.05,29.95,2,1,7,0.00
2013-5-31,87,76,66,64,62,57,84,63,38,30.01,29.87,2,0,8,0.00
2013-6-1,87,77,67,66,64,62,84,65,47,29.89,29.74,5,1,10,0.00
2013-6-2,80,74,67,70,64,60,94,74,58,29.74,29.68,3,0,6,0.00
2013-6-3,67,64,60,65,61,53,95,90,67,29.83,29.71,2,0,3,0.35
2013-6-4,71,60,48,52,46,41,86,62,38,30.01,29.85,5,1,10,0.00
2013-6-5,75,65,54,56,51,46,80,62,43,30.06,29.91,5,1,11,0.00
2013-6-6,66,63,61,61,56,46,94,79,55,29.92,29.73,5,1,10,0.57
2013-6-7,67,64,62,64,62,59,95,94,92,29.73,29.52,5,1,6,0.35
2013-6-8,73,65,60,62,58,56,95,79,58,29.99,29.60,6,1,10,0.01
2013-6-9,77,69,60,66,61,55,89,77,60,30.07,29.97,5,1,7,0.01
2013-6-10,78,69,66,71,67,64,95,91,78,29.97,29.65,2,0,7,1.10
2013-6-11,76,69,63,65,64,62,96,84,65,29.73,29.65,6,1,10,0.02
2013-6-12,81,72,64,69,65,61,93,79,57,29.75,29.66,3,1,8,0.00
2013-6-13,73,68,65,66,62,55,94,81,68,29.67,29.40,7,1,16,0.87
2013-6-14,74,66,59,56,53,49,81,64,42,29.86,29.49,11,2,12,0.00
2013-6-15,77,66,57,58,52,43,92,64,30,29.96,29.86,6,1,10,0.00
2013-6-16,76,69,61,68,58,47,88,70,57,29.90,29.75,6,1,7,0.03
2013-6-17,82,72,64,70,64,61,91,77,53,29.84,29.75,5,1,7,0.01
2013-6-18,74,70,65,69,64,59,91,83,72,29.79,29.67,2,0,5,0.83
2013-6-19,74,65,58,61,57,54,95,77,55,30.02,29.77,4,1,8,0.84
2013-6-20,75,67,60,63,60,56,94,79,61,30.13,30.03,5,0,8,0.00
2013-6-21,80,69,59,61,55,46,79,62,50,30.17,30.10,3,1,7,0.00
2013-6-22,84,72,63,68,63,48,93,73,50,30.12,29.98,2,0,6,0.00
2013-6-23,84,74,66,69,66,63,93,77,56,30.05,29.93,2,0,7,0.00
2013-6-24,86,75,68,70,67,64,88,77,56,30.00,29.90,1,0,6,0.01
2013-6-25,87,76,65,71,67,60,93,75,49,29.90,29.74,0,0,0,0.06
2013-6-26,84,72,64,71,66,62,94,83,60,29.80,29.68,0,0,0,0.01
2013-6-27,82,72,67,71,68,64,94,86,68,29.70,29.48,0,0,0,0.08
2013-6-28,80,70,65,70,66,63,95,85,64,29.47,29.35,0,0,0,0.34
2013-6-29,82,71,63,66,62,59,95,76,46,29.57,29.40,4,0,6,0.25
2013-6-30,82,72,64,73,68,63,96,86,68,29.72,29.57,2,0,6,0.13
2013-7-1,79,73,69,71,69,67,96,87,70,29.84,29.70,2,0,6,0.02
2013-7-2,82,75,71,71,69,67,94,83,67,30.00,29.84,3,0,11,0.07
2013-7-3,82,75,71,72,69,67,91,84,68,30.09,30.00,2,0,6,0.00
2013-7-4,86,77,70,72,70,68,94,79,62,30.10,30.01,1,0,11,0.00
2013-7-5,86,78,71,72,70,68,91,76,63,30.07,29.97,2,0,7,0.00
2013-7-6,88,77,71,72,70,68,91,79,55,30.05,29.92,2,0,6,0.00
2013-7-7,86,74,67,71,68,66,97,81,60,29.96,29.87,5,0,16,1.12
2013-7-8,81,72,67,70,66,64,97,85,57,29.98,29.90,3,1,7,0.00
2013-7-9,79,73,69,72,68,66,91,85,74,29.98,29.86,1,0,5,0.02
2013-7-10,81,75,72,73,70,66,92,84,64,29.86,29.72,2,0,6,0.11
2013-7-11,80,74,68,70,65,60,91,76,53,29.80,29.70,5,0,8,0.00
2013-7-12,72,68,63,66,63,59,95,85,63,29.93,29.79,3,1,10,0.21
2013-7-13,79,72,67,71,68,65,96,88,72,30.13,29.92,2,0,10,0.05
2013-7-14,86,77,70,72,70,68,94,79,57,30.20,30.13,3,0,7,0.00
2013-7-15,90,79,73,72,69,66,83,72,47,30.18,30.06,5,1,7,0.00
2013-7-16,89,81,76,73,69,63,86,69,43,30.13,30.04,6,1,8,0.00
2013-7-17,90,78,76,72,69,65,80,69,43,30.07,29.95,2,1,7,0.00
2013-7-18,92,81,73,76,72,69,90,75,53,30.00,29.86,2,0,5,0.00
2013-7-19,91,80,70,75,72,68,96,79,55,29.88,29.72,11,1,17,1.02
2013-7-20,86,76,68,75,69,66,96,83,58,29.76,29.67,3,1,8,0.01
2013-7-21,80,74,68,72,69,65,95,84,71,29.82,29.75,1,0,3,0.05
2013-7-22,82,74,69,74,70,67,95,88,69,29.81,29.62,4,0,6,0.22
2013-7-23,81,74,70,71,68,64,96,83,59,29.63,29.52,5,1,9,0.03
2013-7-24,76,70,65,66,60,53,91,71,49,29.81,29.56,5,1,9,0.00
2013-7-25,73,64,54,59,54,49,85,69,53,29.93,29.82,7,1,10,0.00
2013-7-26,78,67,58,61,58,54,94,73,44,29.98,29.90,2,0,7,0.00
2013-7-27,79,70,66,69,65,56,95,82,65,29.92,29.78,2,0,5,0.58
2013-7-28,79,71,67,68,66,60,95,84,53,29.85,29.75,1,0,7,0.02
2013-7-29,75,66,57,64,56,52,95,73,47,30.05,29.88,2,1,7,0.00
2013-7-30,77,67,57,60,56,54,89,71,48,30.12,30.02,3,1,9,0.00
2013-7-31,77,70,63,65,62,57,87,78,66,30.03,29.87,2,0,8,0.00
2013-8-1,78,71,66,69,66,64,95,84,68,29.87,29.68,2,0,6,0.07
2013-8-2,80,70,63,64,61,56,95,74,45,29.83,29.74,5,1,7,0.00
2013-8-3,71,67,64,66,63,58,94,87,75,29.84,29.80,1,0,4,0.07
2013-8-4,74,66,58,62,56,50,96,72,43,29.92,29.82,7,1,13,0.00
2013-8-5,74,64,55,57,53,50,88,70,42,29.99,29.90,2,0,7,0.00
2013-8-6,72,66,63,65,61,54,94,85,72,29.95,29.88,2,0,7,0.10
2013-8-7,78,70,65,71,67,63,95,90,78,29.95,29.85,2,0,6,0.10
2013-8-8,81,73,67,72,69,65,96,89,72,29.90,29.83,3,0,6,0.03
2013-8-9,81,75,72,74,72,69,96,90,75,29.83,29.73,3,0,6,0.16
2013-8-10,79,71,66,69,65,61,96,81,55,29.96,29.83,2,0,5,0.00
2013-8-11,83,73,65,69,64,57,89,73,57,29.99,29.87,3,0,7,0.00
2013-8-12,80,74,69,68,66,62,94,78,53,29.90,29.77,3,0,8,0.00
2013-8-13,79,71,67,69,66,55,96,83,59,29.77,29.61,2,0,11,0.88
2013-8-14,69,61,53,55,49,46,85,65,50,29.99,29.73,7,1,12,0.00
2013-8-15,72,60,51,54,50,48,92,73,42,30.08,29.98,2,0,2,0.00
2013-8-16,75,64,55,55,52,48,84,65,41,30.08,30.01,3,1,7,0.00
2013-8-17,75,66,57,59,55,52,86,69,47,30.15,30.08,3,1,8,0.00
2013-8-18,67,62,58,61,59,56,95,89,69,30.16,30.07,1,0,6,0.20
2013-8-19,72,64,59,66,62,57,96,91,81,30.07,29.95,1,0,6,0.00
2013-8-20,81,70,64,68,63,59,96,82,52,30.06,29.97,0,0,0,0.00
2013-8-21,83,73,64,72,66,59,93,81,64,30.07,29.93,1,0,6,0.00
2013-8-22,82,73,66,68,66,62,93,79,58,29.95,29.80,3,1,6,0.00
2013-8-23,72,68,63,66,63,60,94,85,70,30.02,29.82,2,0,6,0.02
2013-8-24,76,67,59,62,56,53,94,70,45,30.21,30.02,3,1,8,0.00
2013-8-25,79,68,60,63,58,53,94,72,48,30.28,30.14,2,0,7,0.00
2013-8-26,82,71,61,65,61,58,90,73,51,30.14,29.86,2,0,11,0.00
2013-8-27,86,76,68,71,67,63,89,75,51,29.86,29.75,3,0,8,0.00
2013-8-28,72,71,69,70,69,67,96,93,88,29.79,29.70,1,0,6,0.49
2013-8-29,80,72,68,70,67,65,96,85,66,29.89,29.73,3,1,7,0.03
2013-8-30,84,73,66,69,67,65,95,82,56,29.90,29.73,5,0,7,0.00
2013-8-31,84,74,69,73,69,66,94,85,59,29.75,29.66,2,0,6,0.05
2013-9-1,83,74,68,72,69,66,94,84,66,29.72,29.63,3,0,6,0.01
2013-9-2,84,74,68,71,69,67,96,84,60,29.68,29.58,3,0,6,0.19
2013-9-3,77,71,61,68,59,52,90,69,43,29.85,29.60,6,1,15,0.00
2013-9-4,77,65,55,57,53,47,92,69,36,29.98,29.85,3,1,7,0.00
2013-9-5,78,66,58,61,53,42,89,66,32,30.01,29.90,5,1,12,0.00
2013-9-6,70,60,53,48,44,39,72,56,34,30.15,30.02,3,1,10,0.00
2013-9-7,76,63,53,57,51,41,84,65,47,30.03,29.82,2,1,6,0.00
2013-9-8,79,69,60,64,59,52,94,71,57,29.94,29.77,5,1,12,0.01
2013-9-9,72,64,58,63,52,43,85,66,51,30.09,29.94,3,0,8,0.00
2013-9-10,88,75,66,73,68,63,93,78,56,30.04,29.93,2,0,7,0.00
2013-9-11,90,78,71,73,70,68,92,77,51,30.01,29.86,2,0,7,0.00
2013-9-12,86,73,67,70,68,64,94,84,54,29.87,29.61,4,0,10,0.34
2013-9-13,71,63,53,62,55,47,91,76,46,29.84,29.58,7,1,13,0.04
2013-9-14,62,54,45,46,44,42,92,71,49,30.04,29.84,5,1,8,0.00
2013-9-15,72,58,46,56,49,44,90,73,49,30.12,29.96,3,0,6,0.00
2013-9-16,68,61,57,58,54,50,95,79,53,30.14,29.91,4,1,12,0.18
2013-9-17,63,53,43,50,41,35,84,65,35,30.32,30.14,5,1,12,0.00
2013-9-18,67,55,45,49,46,42,93,71,49,30.23,30.08,4,0,6,0.00
2013-9-19,72,60,50,60,52,45,88,74,57,30.08,29.95,3,0,6,0.00
2013-9-20,76,65,57,61,58,54,93,79,58,29.96,29.82,2,0,6,0.00
2013-9-21,68,64,59,63,60,58,96,87,75,29.82,29.56,4,0,10,0.57
2013-9-22,66,58,53,58,51,44,97,79,47,29.85,29.61,6,1,13,0.01
2013-9-23,61,53,48,45,42,39,83,67,50,29.99,29.85,6,1,11,0.00
2013-9-24,67,53,43,48,44,40,93,72,40,30.02,29.85,2,1,6,0.00
2013-9-25,71,59,51,50,45,42,77,62,41,29.88,29.76,3,0,6,0.00
2013-9-26,71,61,54,52,48,44,78,64,49,29.95,29.82,5,1,7,0.00
2013-9-27,68,60,54,56,53,48,89,77,62,30.11,29.96,2,0,6,0.00
2013-9-28,64,58,52,53,52,48,91,81,61,30.20,30.11,3,0,6,0.00
2013-9-29,68,58,49,52,49,46,91,75,47,30.11,29.95,2,0,7,0.00
2013-9-30,70,60,52,55,52,50,92,75,51,29.98,29.86,2,0,5,0.00
2013-10-1,76,64,56,60,56,52,92,74,50,29.97,29.85,6,1,7,0.00
2013-10-2,80,67,57,60,58,55,94,74,47,29.97,29.88,4,1,10,0.00
2013-10-3,78,69,61,64,60,57,89,76,55,30.01,29.92,1,0,5,0.00
2013-10-4,81,70,63,64,62,59,88,77,54,29.98,29.89,2,0,6,0.00
2013-10-5,82,72,66,66,63,61,92,74,52,29.98,29.87,1,0,6,0.00
2013-10-6,85,74,66,66,63,59,88,69,44,29.88,29.76,3,1,10,0.00
2013-10-7,72,62,51,66,56,42,94,81,59,29.95,29.59,6,1,12,0.49
2013-10-8,64,54,46,47,44,40,90,69,41,30.19,29.95,5,1,10,0.00
2013-10-9,58,53,49,45,43,39,81,69,53,30.24,30.15,3,1,10,0.00
2013-10-10,57,54,51,56,49,44,96,85,70,30.13,29.93,5,1,11,2.50
2013-10-11,60,57,54,59,56,53,97,95,92,29.93,29.87,8,1,18,2.02
2013-10-12,67,62,59,58,54,48,92,76,56,30.07,29.89,8,3,15,0.00
2013-10-13,60,57,55,55,53,51,93,89,82,30.21,30.07,7,1,11,0.07
2013-10-14,60,56,50,54,52,49,92,89,84,30.24,30.13,2,1,2,0.00
2013-10-15,68,58,50,52,49,41,89,73,47,30.13,29.97,2,0,5,0.00
2013-10-16,66,62,56,59,55,40,91,79,55,29.96,29.78,1,0,6,0.00
2013-10-17,69,65,57,63,59,45,95,81,66,29.78,29.57,8,1,13,0.04
2013-10-18,60,54,47,45,41,39,79,63,45,29.90,29.72,7,2,10,0.00
2013-10-19,59,53,46,53,46,39,85,77,65,29.90,29.65,4,1,7,0.00
2013-10-20,57,48,39,41,37,34,88,66,43,29.99,29.76,8,1,11,0.00
2013-10-21,64,50,42,43,39,36,78,65,42,30.02,29.83,3,1,11,0.00
2013-10-22,56,51,42,47,40,29,79,67,39,29.82,29.71,7,1,8,0.00
2013-10-23,49,43,37,36,32,29,77,65,48,29.77,29.58,3,1,7,0.00
2013-10-24,46,40,32,34,29,23,86,68,42,30.02,29.77,6,2,11,0.00
2013-10-25,48,39,31,34,29,26,88,71,47,30.20,30.02,8,1,11,0.00
2013-10-26,51,41,31,33,28,24,84,61,35,30.19,29.82,3,1,7,0.00
2013-10-27,53,46,38,35,31,28,76,55,39,30.03,29.82,5,1,10,0.00
2013-10-28,56,45,38,37,33,29,75,63,45,30.18,30.03,2,0,5,0.00
2013-10-29,50,47,42,37,35,30,73,64,60,30.29,30.17,2,0,3,0.00
2013-10-30,64,54,49,50,45,37,80,74,59,30.18,30.02,1,0,2,0.00
2013-10-31,59,57,56,49,49,49,71,71,71,30.05,29.96,1,1,3,0.00
2013-11-4,42,36,28,25,20,16,67,54,39,30.53,30.46,5,1,8,0.00
2013-11-5,52,43,35,41,32,21,78,64,57,30.51,30.31,5,1,6,0.00
2013-11-6,65,56,50,49,46,43,83,70,55,30.32,29.89,5,1,14,0.00
2013-11-7,60,51,38,53,43,21,95,73,48,29.95,29.75,12,2,21,0.55
2013-11-8,44,38,33,31,25,19,80,58,42,30.19,29.94,13,2,18,0.00
2013-11-9,51,40,29,29,26,23,79,59,36,30.22,29.88,3,1,8,0.00
2013-11-10,53,45,37,34,28,26,59,52,38,30.09,29.83,19,3,19,0.00
2013-11-11,53,43,31,31,29,26,83,59,35,30.17,29.89,3,1,7,0.00
2013-11-12,49,36,26,36,20,11,76,55,36,30.29,29.85,13,4,17,0.00
2013-11-13,38,31,26,20,18,16,71,57,44,30.37,30.25,10,3,13,0.00
2013-11-14,53,38,25,20,15,8,73,43,18,30.25,30.09,5,1,10,0.00
2013-11-15,55,42,36,24,20,18,50,41,23,30.15,30.04,3,1,3,0.00
2013-11-16,58,50,44,47,36,24,92,63,40,30.18,30.08,8,0,8,0.02
2013-11-17,60,55,49,56,52,47,93,88,79,30.07,29.55,10,2,14,0.02
2013-11-18,61,54,44,58,34,22,90,50,25,29.80,29.51,11,4,21,0.09
2013-11-19,44,38,29,26,24,22,73,57,46,30.27,29.80,10,3,19,0.00
2013-11-20,42,33,26,21,18,12,73,56,29,30.45,30.26,2,1,10,0.00
2013-11-21,45,38,28,38,30,21,80,73,64,30.46,30.25,3,1,5,0.00
2013-11-22,53,48,44,50,44,38,93,84,74,30.24,29.90,7,0,12,0.01
2013-11-23,49,36,24,42,22,5,81,59,39,30.10,29.93,13,4,19,0.00
2013-11-24,25,21,16,14,8,4,73,56,40,30.40,30.10,12,4,18,0.00
2013-11-25,34,24,14,11,7,4,74,50,28,30.44,30.18,3,1,10,0.00
2013-11-26,34,32,30,31,24,9,93,75,43,30.18,29.56,2,0,12,1.65
2013-11-27,36,32,26,34,27,14,95,79,59,29.89,29.45,11,4,24,0.15
2013-11-28,30,27,24,21,15,10,77,61,43,30.35,29.89,12,3,18,0.00
2013-11-29,35,28,24,21,19,16,83,70,50,30.60,30.35,7,1,12,0.00
2013-11-30,32,27,21,20,16,13,78,65,51,30.61,30.25,2,0,7,0.00
2013-12-1,37,31,24,29,24,20,83,73,61,30.25,29.92,2,0,4,0.00
2013-12-2,44,38,37,32,30,29,76,72,59,29.85,29.73,2,0,3,0.00
2013-12-3,48,42,38,36,34,31,81,74,62,29.86,29.75,3,0,5,0.00
2013-12-4,55,47,38,49,40,33,88,78,60,29.96,29.86,4,1,6,0.00
2013-12-5,59,52,48,56,49,45,93,91,83,29.92,29.77,1,0,6,0.00
2013-12-6,58,43,34,56,42,32,96,93,92,30.07,29.74,4,1,10,1.70
2013-12-7,35,32,25,32,25,17,93,78,61,30.44,30.04,7,2,13,0.01
2013-12-8,27,24,22,25,19,14,93,82,63,30.48,30.20,3,0,8,0.00
2013-12-9,33,30,27,31,28,25,96,94,93,30.20,29.92,2,0,5,0.09
2013-12-10,32,28,19,31,24,13,96,86,56,30.10,29.88,6,1,11,0.02
2013-12-11,32,23,16,18,14,11,80,68,48,30.29,30.10,5,1,10,0.01
2013-12-12,28,21,15,20,7,-2,70,56,31,30.32,30.10,11,3,14,0.00
2013-12-13,35,26,16,18,12,5,66,55,43,30.20,30.07,6,1,12,0.00
2013-12-14,32,29,27,30,23,16,95,78,63,30.21,29.63,2,1,7,0.00
2013-12-15,36,30,27,33,25,19,96,82,60,29.79,29.54,8,2,16,0.12
2013-12-16,32,27,23,21,17,13,73,67,62,30.07,29.79,8,2,13,0.00
2013-12-17,32,29,26,28,25,19,90,85,71,30.03,29.83,3,0,6,0.03
2013-12-18,33,28,24,24,20,15,91,70,58,30.10,29.88,6,2,12,0.00
2013-12-19,46,36,25,30,23,18,76,61,41,30.07,29.94,4,1,6,0.32
2013-12-20,49,44,40,33,30,28,63,57,46,29.96,29.85,4,1,5,0.02
2013-12-21,66,51,44,56,42,32,76,71,62,29.87,29.69,6,2,16,0.00
2013-12-22,68,62,56,60,56,51,94,82,55,29.83,29.59,7,2,17,0.29
2013-12-23,56,47,31,55,42,22,96,82,61,30.12,29.80,9,2,16,0.49
2013-12-24,33,27,19,24,16,5,80,64,43,30.35,30.09,14,3,19,0.00
2013-12-25,28,21,13,12,9,6,77,61,49,30.46,30.23,2,1,12,0.00
2013-12-26,38,29,21,23,18,12,78,63,45,30.23,30.10,6,1,14,0.00
2013-12-27,44,32,25,20,17,13,71,55,27,30.28,30.18,5,1,11,0.00
2013-12-28,52,39,29,27,23,19,67,53,33,30.20,29.96,3,1,8,0.00
2013-12-29,45,42,39,41,36,24,95,82,45,29.96,29.44,6,1,11,0.74
2013-12-30,43,34,26,39,25,15,86,69,59,30.06,29.67,8,3,14,0.00
2013-12-31,35,28,22,23,16,13,77,62,46,30.19,29.97,12,3,17,0.00
2014-1-1,41,31,22,24,20,14,75,65,43,30.27,30.00,4,0,10,0.00
2014-1-2,32,28,24,26,25,20,92,86,76,30.00,29.56,6,1,10,0.00